sensor_id;sensor_type;location;lat;lon;timestamp;pressure;altitude;pressure_sealevel;temperature;humidity
13968;BME280;39536;52.198;9.920;2023-02-28T00:01:14;102246.31;;;1.39;100.00
13968;BME280;39536;52.198;9.920;2023-02-28T00:03:41;102253.22;;;1.41;100.00
13968;BME280;39536;52.198;9.920;2023-02-28T00:06:08;102252.19;;;1.35;100.00
13968;BME280;39536;52.198;9.920;2023-02-28T00:08:36;102254.19;;;1.44;100.00
13968;BME280;39536;52.198;9.920;2023-02-28T00:11:03;102257.81;;;1.51;100.00
13968;BME280;39536;52.198;9.920;2023-02-28T00:13:30;102247.69;;;1.55;100.00
13968;BME280;39536;52.198;9.920;2023-02-28T00:16:03;102253.72;;;1.56;100.00
13968;BME280;39536;52.198;9.920;2023-02-28T00:18:30;102250.34;;;1.58;100.00
13968;BME280;39536;52.198;9.920;2023-02-28T00:20:56;102248.72;;;1.60;100.00
13968;BME280;39536;52.198;9.920;2023-02-28T00:23:23;102249.56;;;1.61;100.00
13968;BME280;39536;52.198;9.920;2023-02-28T00:25:50;102246.88;;;1.56;100.00
13968;BME280;39536;52.198;9.920;2023-02-28T00:28:16;102254.59;;;1.56;100.00
13968;BME280;39536;52.198;9.920;2023-02-28T00:30:43;102255.19;;;1.49;100.00
13968;BME280;39536;52.198;9.920;2023-02-28T00:33:12;102254.38;;;1.50;100.00
13968;BME280;39536;52.198;9.920;2023-02-28T00:35:38;102248.94;;;1.41;100.00
13968;BME280;39536;52.198;9.920;2023-02-28T00:38:05;102248.94;;;1.41;100.00
13968;BME280;39536;52.198;9.920;2023-02-28T00:40:32;102241.25;;;1.41;100.00
13968;BME280;39536;52.198;9.920;2023-02-28T00:42:58;102245.34;;;1.36;100.00
13968;BME280;39536;52.198;9.920;2023-02-28T00:45:25;102247.72;;;1.30;100.00
13968;BME280;39536;52.198;9.920;2023-02-28T00:47:52;102246.66;;;1.23;100.00
13968;BME280;39536;52.198;9.920;2023-02-28T00:50:20;102244.75;;;1.18;100.00
13968;BME280;39536;52.198;9.920;2023-02-28T00:52:47;102247.16;;;1.13;100.00
13968;BME280;39536;52.198;9.920;2023-02-28T00:55:14;102247.81;;;1.07;100.00
13968;BME280;39536;52.198;9.920;2023-02-28T00:57:41;102251.22;;;1.06;100.00
13968;BME280;39536;52.198;9.920;2023-02-28T01:00:08;102252.84;;;1.04;100.00
13968;BME280;39536;52.198;9.920;2023-02-28T01:02:36;102246.78;;;1.02;100.00
13968;BME280;39536;52.198;9.920;2023-02-28T01:05:03;102246.66;;;0.98;100.00
13968;BME280;39536;52.198;9.920;2023-02-28T01:07:31;102256.03;;;0.97;100.00
13968;BME280;39536;52.198;9.920;2023-02-28T01:09:58;102252.44;;;0.92;100.00
13968;BME280;39536;52.198;9.920;2023-02-28T01:12:24;102254.06;;;0.90;100.00
13968;BME280;39536;52.198;9.920;2023-02-28T01:14:51;102255.72;;;0.88;100.00
13968;BME280;39536;52.198;9.920;2023-02-28T01:17:17;102251.97;;;0.78;100.00
13968;BME280;39536;52.198;9.920;2023-02-28T01:19:44;102252.31;;;0.65;100.00
13968;BME280;39536;52.198;9.920;2023-02-28T01:24:40;102259.75;;;0.57;100.00
13968;BME280;39536;52.198;9.920;2023-02-28T01:27:06;102252.81;;;0.55;100.00
13968;BME280;39536;52.198;9.920;2023-02-28T01:29:33;102253.69;;;0.55;100.00
13968;BME280;39536;52.198;9.920;2023-02-28T01:31:59;102252.69;;;0.50;100.00
13968;BME280;39536;52.198;9.920;2023-02-28T01:34:26;102252.44;;;0.44;100.00
13968;BME280;39536;52.198;9.920;2023-02-28T01:36:53;102245.75;;;0.48;100.00
13968;BME280;39536;52.198;9.920;2023-02-28T01:39:19;102251.66;;;0.46;100.00
13968;BME280;39536;52.198;9.920;2023-02-28T01:41:48;102248.31;;;0.48;100.00
13968;BME280;39536;52.198;9.920;2023-02-28T01:47:14;102237.81;;;0.41;100.00
13968;BME280;39536;52.198;9.920;2023-02-28T01:49:41;102234.28;;;0.38;100.00
13968;BME280;39536;52.198;9.920;2023-02-28T01:52:09;102235.84;;;0.34;100.00
13968;BME280;39536;52.198;9.920;2023-02-28T01:54:40;102232.41;;;0.34;100.00
13968;BME280;39536;52.198;9.920;2023-02-28T01:57:10;102238.34;;;0.33;100.00
13968;BME280;39536;52.198;9.920;2023-02-28T01:59:41;102238.34;;;0.33;100.00
13968;BME280;39536;52.198;9.920;2023-02-28T02:02:11;102239.00;;;0.27;100.00
13968;BME280;39536;52.198;9.920;2023-02-28T02:04:45;102236.09;;;0.18;100.00
13968;BME280;39536;52.198;9.920;2023-02-28T02:07:16;102230.94;;;0.16;100.00
13968;BME280;39536;52.198;9.920;2023-02-28T02:09:43;102232.38;;;0.10;100.00
13968;BME280;39536;52.198;9.920;2023-02-28T02:12:23;102230.13;;;-0.05;100.00
13968;BME280;39536;52.198;9.920;2023-02-28T02:15:00;102225.03;;;-0.04;100.00
13968;BME280;39536;52.198;9.920;2023-02-28T02:17:35;102214.22;;;0.04;100.00
13968;BME280;39536;52.198;9.920;2023-02-28T02:20:27;102221.00;;;0.03;100.00
13968;BME280;39536;52.198;9.920;2023-02-28T02:23:25;102217.31;;;-0.05;100.00
13968;BME280;39536;52.198;9.920;2023-02-28T02:26:04;102219.75;;;-0.08;100.00
13968;BME280;39536;52.198;9.920;2023-02-28T02:28:59;102223.53;;;-0.21;100.00
13968;BME280;39536;52.198;9.920;2023-02-28T02:31:51;102211.53;;;-0.22;100.00
13968;BME280;39536;52.198;9.920;2023-02-28T02:34:33;102210.72;;;-0.21;100.00
13968;BME280;39536;52.198;9.920;2023-02-28T02:37:12;102205.13;;;-0.33;100.00
13968;BME280;39536;52.198;9.920;2023-02-28T02:39:48;102208.19;;;-0.42;100.00
13968;BME280;39536;52.198;9.920;2023-02-28T02:42:22;102209.06;;;-0.41;100.00
13968;BME280;39536;52.198;9.920;2023-02-28T02:44:55;102203.59;;;-0.51;100.00
13968;BME280;39536;52.198;9.920;2023-02-28T02:47:26;102210.09;;;-0.59;100.00
13968;BME280;39536;52.198;9.920;2023-02-28T02:49:57;102212.13;;;-0.50;100.00
13968;BME280;39536;52.198;9.920;2023-02-28T02:52:30;102209.66;;;-0.49;100.00
13968;BME280;39536;52.198;9.920;2023-02-28T02:55:00;102215.97;;;-0.61;100.00
13968;BME280;39536;52.198;9.920;2023-02-28T02:57:32;102211.22;;;-0.52;100.00
13968;BME280;39536;52.198;9.920;2023-02-28T03:00:03;102220.84;;;-0.47;100.00
13968;BME280;39536;52.198;9.920;2023-02-28T03:02:34;102209.97;;;-0.62;100.00
13968;BME280;39536;52.198;9.920;2023-02-28T03:05:07;102220.09;;;-0.65;100.00
13968;BME280;39536;52.198;9.920;2023-02-28T03:07:34;102222.28;;;-0.74;100.00
13968;BME280;39536;52.198;9.920;2023-02-28T03:10:01;102218.28;;;-0.67;100.00
13968;BME280;39536;52.198;9.920;2023-02-28T03:12:38;102218.53;;;-0.61;100.00
13968;BME280;39536;52.198;9.920;2023-02-28T03:15:11;102215.97;;;-0.61;100.00
13968;BME280;39536;52.198;9.920;2023-02-28T03:17:50;102221.81;;;-0.64;100.00
13968;BME280;39536;52.198;9.920;2023-02-28T03:20:30;102221.81;;;-0.64;100.00
13968;BME280;39536;52.198;9.920;2023-02-28T03:23:07;102216.72;;;-0.64;100.00
13968;BME280;39536;52.198;9.920;2023-02-28T03:25:44;102221.78;;;-0.65;100.00
13968;BME280;39536;52.198;9.920;2023-02-28T03:28:17;102221.09;;;-0.61;100.00
13968;BME280;39536;52.198;9.920;2023-02-28T03:30:49;102217.13;;;-0.53;100.00
13968;BME280;39536;52.198;9.920;2023-02-28T03:33:21;102215.47;;;-0.53;100.00
13968;BME280;39536;52.198;9.920;2023-02-28T03:35:54;102221.25;;;-0.57;100.00
13968;BME280;39536;52.198;9.920;2023-02-28T03:38:26;102221.88;;;-0.62;100.00
13968;BME280;39536;52.198;9.920;2023-02-28T03:40:58;102222.81;;;-0.60;100.00
13968;BME280;39536;52.198;9.920;2023-02-28T03:43:29;102236.44;;;-0.82;100.00
13968;BME280;39536;52.198;9.920;2023-02-28T03:45:59;102222.06;;;-0.79;100.00
13968;BME280;39536;52.198;9.920;2023-02-28T03:48:32;102222.91;;;-0.80;100.00
13968;BME280;39536;52.198;9.920;2023-02-28T03:51:03;102233.00;;;-0.83;100.00
13968;BME280;39536;52.198;9.920;2023-02-28T03:53:36;102228.72;;;-0.84;100.00
13968;BME280;39536;52.198;9.920;2023-02-28T03:56:07;102231.25;;;-0.84;100.00
13968;BME280;39536;52.198;9.920;2023-02-28T03:58:41;102227.88;;;-0.83;100.00
13968;BME280;39536;52.198;9.920;2023-02-28T04:01:12;102230.38;;;-0.84;100.00
13968;BME280;39536;52.198;9.920;2023-02-28T04:03:42;102229.56;;;-0.83;100.00
13968;BME280;39536;52.198;9.920;2023-02-28T04:06:15;102233.94;;;-0.81;100.00
13968;BME280;39536;52.198;9.920;2023-02-28T04:08:43;102230.38;;;-0.84;100.00
13968;BME280;39536;52.198;9.920;2023-02-28T04:11:18;102234.59;;;-0.85;100.00
13968;BME280;39536;52.198;9.920;2023-02-28T04:13:46;102242.41;;;-1.03;100.00
13968;BME280;39536;52.198;9.920;2023-02-28T04:16:13;102234.97;;;-0.97;100.00
13968;BME280;39536;52.198;9.920;2023-02-28T04:18:40;102233.31;;;-0.96;100.00
13968;BME280;39536;52.198;9.920;2023-02-28T04:21:08;102240.28;;;-0.92;100.00
13968;BME280;39536;52.198;9.920;2023-02-28T04:23:37;102240.34;;;-0.90;100.00
13968;BME280;39536;52.198;9.920;2023-02-28T04:26:03;102235.16;;;-0.92;100.00
13968;BME280;39536;52.198;9.920;2023-02-28T04:28:31;102233.44;;;-0.93;100.00
13968;BME280;39536;52.198;9.920;2023-02-28T04:30:59;102246.34;;;-0.90;100.00
13968;BME280;39536;52.198;9.920;2023-02-28T04:33:26;102243.78;;;-0.90;100.00
13968;BME280;39536;52.198;9.920;2023-02-28T04:36:00;102243.03;;;-0.87;100.00
13968;BME280;39536;52.198;9.920;2023-02-28T04:38:28;102243.84;;;-0.88;100.00
13968;BME280;39536;52.198;9.920;2023-02-28T04:40:57;102243.72;;;-0.91;100.00
13968;BME280;39536;52.198;9.920;2023-02-28T04:43:26;102251.47;;;-0.90;100.00
13968;BME280;39536;52.198;9.920;2023-02-28T04:45:52;102254.94;;;-0.88;100.00
13968;BME280;39536;52.198;9.920;2023-02-28T04:48:22;102251.03;;;-0.80;100.00
13968;BME280;39536;52.198;9.920;2023-02-28T04:50:48;102251.78;;;-0.82;100.00
13968;BME280;39536;52.198;9.920;2023-02-28T04:53:15;102254.72;;;-0.73;100.00
13968;BME280;39536;52.198;9.920;2023-02-28T04:55:41;102255.84;;;-0.66;100.00
13968;BME280;39536;52.198;9.920;2023-02-28T04:58:09;102256.66;;;-0.67;100.00
13968;BME280;39536;52.198;9.920;2023-02-28T05:00:36;102252.50;;;-0.65;100.00
13968;BME280;39536;52.198;9.920;2023-02-28T05:03:03;102252.66;;;-0.61;100.00
13968;BME280;39536;52.198;9.920;2023-02-28T05:05:30;102257.03;;;-0.58;100.00
13968;BME280;39536;52.198;9.920;2023-02-28T05:07:56;102246.31;;;-0.50;100.00
13968;BME280;39536;52.198;9.920;2023-02-28T05:10:23;102248.16;;;-0.45;100.00
13968;BME280;39536;52.198;9.920;2023-02-28T05:12:49;102256.59;;;-0.48;100.00
13968;BME280;39536;52.198;9.920;2023-02-28T05:15:17;102256.53;;;-0.50;100.00
13968;BME280;39536;52.198;9.920;2023-02-28T05:17:44;102254.22;;;-0.43;100.00
13968;BME280;39536;52.198;9.920;2023-02-28T05:20:11;102252.66;;;-0.40;100.00
13968;BME280;39536;52.198;9.920;2023-02-28T05:22:38;102253.66;;;-0.36;100.00
13968;BME280;39536;52.198;9.920;2023-02-28T05:25:06;102248.41;;;-0.39;100.00
13968;BME280;39536;52.198;9.920;2023-02-28T05:27:33;102250.97;;;-0.39;100.00
13968;BME280;39536;52.198;9.920;2023-02-28T05:29:59;102241.34;;;-0.45;100.00
13968;BME280;39536;52.198;9.920;2023-02-28T05:32:30;102240.97;;;-0.54;100.00
13968;BME280;39536;52.198;9.920;2023-02-28T05:34:56;102243.16;;;-0.63;100.00
13968;BME280;39536;52.198;9.920;2023-02-28T05:37:23;102243.03;;;-0.66;100.00
13968;BME280;39536;52.198;9.920;2023-02-28T05:39:49;102238.88;;;-0.64;100.00
13968;BME280;39536;52.198;9.920;2023-02-28T05:42:16;102243.13;;;-0.65;100.00
13968;BME280;39536;52.198;9.920;2023-02-28T05:44:43;102240.44;;;-0.68;100.00
13968;BME280;39536;52.198;9.920;2023-02-28T05:47:09;102241.75;;;-0.78;100.00
13968;BME280;39536;52.198;9.920;2023-02-28T05:49:39;102246.03;;;-0.77;100.00
13968;BME280;39536;52.198;9.920;2023-02-28T05:52:05;102248.72;;;-0.74;100.00
13968;BME280;39536;52.198;9.920;2023-02-28T05:54:32;102250.28;;;-0.77;100.00
13968;BME280;39536;52.198;9.920;2023-02-28T05:56:59;102241.66;;;-0.79;100.00
13968;BME280;39536;52.198;9.920;2023-02-28T05:59:25;102248.28;;;-0.84;100.00
13968;BME280;39536;52.198;9.920;2023-02-28T06:01:52;102245.72;;;-1.05;100.00
13968;BME280;39536;52.198;9.920;2023-02-28T06:04:20;102249.94;;;-1.25;100.00
13968;BME280;39536;52.198;9.920;2023-02-28T06:06:49;102251.06;;;-1.40;100.00
13968;BME280;39536;52.198;9.920;2023-02-28T06:09:16;102250.09;;;-1.61;100.00
13968;BME280;39536;52.198;9.920;2023-02-28T06:11:44;102263.19;;;-1.73;100.00
13968;BME280;39536;52.198;9.920;2023-02-28T06:14:14;102262.56;;;-1.87;100.00
13968;BME280;39536;52.198;9.920;2023-02-28T06:16:42;102269.25;;;-1.71;100.00
13968;BME280;39536;52.198;9.920;2023-02-28T06:19:09;102274.97;;;-1.57;100.00
13968;BME280;39536;52.198;9.920;2023-02-28T06:21:36;102275.47;;;-1.46;100.00
13968;BME280;39536;52.198;9.920;2023-02-28T06:24:05;102270.75;;;-1.37;100.00
13968;BME280;39536;52.198;9.920;2023-02-28T06:26:32;102275.38;;;-1.28;100.00
13968;BME280;39536;52.198;9.920;2023-02-28T06:28:58;102270.13;;;-1.31;100.00
13968;BME280;39536;52.198;9.920;2023-02-28T06:31:26;102277.78;;;-1.31;100.00
13968;BME280;39536;52.198;9.920;2023-02-28T06:33:55;102282.41;;;-1.24;100.00
13968;BME280;39536;52.198;9.920;2023-02-28T06:36:21;102281.75;;;-1.19;100.00
13968;BME280;39536;52.198;9.920;2023-02-28T06:38:48;102288.66;;;-1.18;100.00
13968;BME280;39536;52.198;9.920;2023-02-28T06:41:21;102296.91;;;-1.23;100.00
13968;BME280;39536;52.198;9.920;2023-02-28T06:43:48;102295.91;;;-1.27;100.00
13968;BME280;39536;52.198;9.920;2023-02-28T06:46:14;102308.28;;;-1.17;100.00
13968;BME280;39536;52.198;9.920;2023-02-28T06:48:43;102304.03;;;-1.16;100.00
13968;BME280;39536;52.198;9.920;2023-02-28T06:51:11;102312.78;;;-1.11;100.00
13968;BME280;39536;52.198;9.920;2023-02-28T06:53:38;102299.53;;;-1.02;100.00
13968;BME280;39536;52.198;9.920;2023-02-28T06:56:06;102310.22;;;-0.91;100.00
13968;BME280;39536;52.198;9.920;2023-02-28T06:58:35;102305.50;;;-0.82;100.00
13968;BME280;39536;52.198;9.920;2023-02-28T07:01:03;102301.19;;;-0.83;100.00
13968;BME280;39536;52.198;9.920;2023-02-28T07:03:30;102304.75;;;-0.80;100.00
13968;BME280;39536;52.198;9.920;2023-02-28T07:05:56;102309.75;;;-0.83;100.00
13968;BME280;39536;52.198;9.920;2023-02-28T07:08:23;102313.31;;;-0.79;100.00
13968;BME280;39536;52.198;9.920;2023-02-28T07:10:52;102313.69;;;-0.70;100.00
13968;BME280;39536;52.198;9.920;2023-02-28T07:13:19;102317.06;;;-0.71;100.00
13968;BME280;39536;52.198;9.920;2023-02-28T07:15:54;102313.63;;;-0.72;100.00
13968;BME280;39536;52.198;9.920;2023-02-28T07:18:21;102316.34;;;-0.68;100.00
13968;BME280;39536;52.198;9.920;2023-02-28T07:20:48;102317.72;;;-0.56;100.00
13968;BME280;39536;52.198;9.920;2023-02-28T07:23:15;102317.06;;;-0.50;100.00
13968;BME280;39536;52.198;9.920;2023-02-28T07:25:41;102322.56;;;-0.41;100.00
13968;BME280;39536;52.198;9.920;2023-02-28T07:28:08;102325.47;;;-0.33;100.00
13968;BME280;39536;52.198;9.920;2023-02-28T07:30:35;102320.59;;;-0.27;100.00
13968;BME280;39536;52.198;9.920;2023-02-28T07:33:04;102339.91;;;-0.13;100.00
13968;BME280;39536;52.198;9.920;2023-02-28T07:35:31;102324.88;;;-0.05;100.00
13968;BME280;39536;52.198;9.920;2023-02-28T07:37:57;102325.16;;;0.03;100.00
13968;BME280;39536;52.198;9.920;2023-02-28T07:40:25;102322.19;;;0.13;100.00
13968;BME280;39536;52.198;9.920;2023-02-28T07:42:54;102331.00;;;0.21;100.00
13968;BME280;39536;52.198;9.920;2023-02-28T07:45:27;102325.13;;;0.23;100.00
13968;BME280;39536;52.198;9.920;2023-02-28T07:47:55;102323.69;;;0.30;100.00
13968;BME280;39536;52.198;9.920;2023-02-28T07:50:23;102322.22;;;0.37;100.00
13968;BME280;39536;52.198;9.920;2023-02-28T07:52:57;102322.22;;;0.37;100.00
13968;BME280;39536;52.198;9.920;2023-02-28T07:55:24;102323.63;;;0.51;100.00
13968;BME280;39536;52.198;9.920;2023-02-28T07:57:52;102317.63;;;0.51;100.00
13968;BME280;39536;52.198;9.920;2023-02-28T08:00:23;102318.09;;;0.63;100.00
13968;BME280;39536;52.198;9.920;2023-02-28T08:02:50;102314.91;;;0.70;100.00
13968;BME280;39536;52.198;9.920;2023-02-28T08:05:19;102317.84;;;0.81;100.00
13968;BME280;39536;52.198;9.920;2023-02-28T08:07:48;102317.09;;;0.83;100.00
13968;BME280;39536;52.198;9.920;2023-02-28T08:10:15;102319.25;;;0.95;100.00
13968;BME280;39536;52.198;9.920;2023-02-28T08:12:42;102315.06;;;0.97;100.00
13968;BME280;39536;52.198;9.920;2023-02-28T08:15:09;102318.59;;;1.01;100.00
13968;BME280;39536;52.198;9.920;2023-02-28T08:17:36;102308.69;;;1.11;100.00
13968;BME280;39536;52.198;9.920;2023-02-28T08:20:03;102306.41;;;1.19;100.00
13968;BME280;39536;52.198;9.920;2023-02-28T08:22:30;102309.50;;;1.34;100.00
13968;BME280;39536;52.198;9.920;2023-02-28T08:24:58;102313.56;;;1.28;100.00
13968;BME280;39536;52.198;9.920;2023-02-28T08:27:24;102313.84;;;1.37;100.00
13968;BME280;39536;52.198;9.920;2023-02-28T08:29:51;102312.69;;;1.53;100.00
13968;BME280;39536;52.198;9.920;2023-02-28T08:32:17;102317.22;;;1.61;100.00
13968;BME280;39536;52.198;9.920;2023-02-28T08:34:44;102319.69;;;1.58;100.00
13968;BME280;39536;52.198;9.920;2023-02-28T08:37:10;102322.88;;;1.51;100.00
13968;BME280;39536;52.198;9.920;2023-02-28T08:39:37;102320.97;;;1.71;100.00
13968;BME280;39536;52.198;9.920;2023-02-28T08:42:05;102324.00;;;1.85;100.00
13968;BME280;39536;52.198;9.920;2023-02-28T08:44:32;102324.19;;;1.91;100.00
13968;BME280;39536;52.198;9.920;2023-02-28T08:46:58;102319.81;;;1.89;100.00
13968;BME280;39536;52.198;9.920;2023-02-28T08:49:26;102323.66;;;2.01;100.00
13968;BME280;39536;52.198;9.920;2023-02-28T08:51:53;102329.72;;;2.03;100.00
13968;BME280;39536;52.198;9.920;2023-02-28T08:54:20;102335.53;;;1.98;100.00
13968;BME280;39536;52.198;9.920;2023-02-28T08:56:48;102330.13;;;2.17;100.00
13968;BME280;39536;52.198;9.920;2023-02-28T08:59:16;102328.59;;;2.22;100.00
13968;BME280;39536;52.198;9.920;2023-02-28T09:01:42;102326.84;;;2.21;100.00
13968;BME280;39536;52.198;9.920;2023-02-28T09:04:09;102329.50;;;2.24;100.00
13968;BME280;39536;52.198;9.920;2023-02-28T09:06:37;102332.53;;;2.40;100.00
13968;BME280;39536;52.198;9.920;2023-02-28T09:09:03;102338.28;;;2.60;100.00
13968;BME280;39536;52.198;9.920;2023-02-28T09:11:31;102330.56;;;2.60;100.00
13968;BME280;39536;52.198;9.920;2023-02-28T09:13:58;102337.31;;;2.56;100.00
13968;BME280;39536;52.198;9.920;2023-02-28T09:16:26;102338.84;;;2.49;100.00
13968;BME280;39536;52.198;9.920;2023-02-28T09:18:53;102343.31;;;2.57;100.00
13968;BME280;39536;52.198;9.920;2023-02-28T09:21:19;102334.19;;;2.68;100.00
13968;BME280;39536;52.198;9.920;2023-02-28T09:23:47;102337.00;;;2.75;100.00
13968;BME280;39536;52.198;9.920;2023-02-28T09:26:16;102335.09;;;2.68;100.00
13968;BME280;39536;52.198;9.920;2023-02-28T09:28:43;102332.69;;;2.74;100.00
13968;BME280;39536;52.198;9.920;2023-02-28T09:31:12;102339.56;;;2.45;100.00
13968;BME280;39536;52.198;9.920;2023-02-28T09:33:41;102338.19;;;2.57;100.00
13968;BME280;39536;52.198;9.920;2023-02-28T09:36:08;102339.13;;;2.60;100.00
13968;BME280;39536;52.198;9.920;2023-02-28T09:38:34;102340.09;;;2.64;100.00
13968;BME280;39536;52.198;9.920;2023-02-28T09:41:03;102335.31;;;2.76;100.00
13968;BME280;39536;52.198;9.920;2023-02-28T09:43:34;102340.84;;;2.90;100.00
13968;BME280;39536;52.198;9.920;2023-02-28T09:46:06;102343.38;;;3.20;100.00
13968;BME280;39536;52.198;9.920;2023-02-28T09:48:39;102331.63;;;3.30;100.00
13968;BME280;39536;52.198;9.920;2023-02-28T09:51:15;102333.88;;;3.49;100.00
13968;BME280;39536;52.198;9.920;2023-02-28T09:53:50;102334.41;;;3.37;100.00
13968;BME280;39536;52.198;9.920;2023-02-28T09:56:21;102340.19;;;3.62;100.00
13968;BME280;39536;52.198;9.920;2023-02-28T09:58:54;102334.50;;;3.40;100.00
13968;BME280;39536;52.198;9.920;2023-02-28T10:01:27;102339.66;;;3.42;100.00
13968;BME280;39536;52.198;9.920;2023-02-28T10:03:57;102334.81;;;3.54;100.00
13968;BME280;39536;52.198;9.920;2023-02-28T10:06:29;102338.28;;;3.55;100.00
13968;BME280;39536;52.198;9.920;2023-02-28T10:09:02;102339.13;;;3.54;100.00
13968;BME280;39536;52.198;9.920;2023-02-28T10:11:32;102335.94;;;3.64;100.00
13968;BME280;39536;52.198;9.920;2023-02-28T10:14:03;102330.34;;;3.82;100.00
13968;BME280;39536;52.198;9.920;2023-02-28T10:16:34;102328.84;;;3.90;100.00
13968;BME280;39536;52.198;9.920;2023-02-28T10:19:03;102334.19;;;3.98;100.00
13968;BME280;39536;52.198;9.920;2023-02-28T10:21:36;102329.22;;;4.05;100.00
13968;BME280;39536;52.198;9.920;2023-02-28T10:24:14;102333.03;;;4.23;100.00
13968;BME280;39536;52.198;9.920;2023-02-28T10:26:44;102334.34;;;4.43;100.00
13968;BME280;39536;52.198;9.920;2023-02-28T10:29:11;102331.84;;;4.48;100.00
13968;BME280;39536;52.198;9.920;2023-02-28T10:31:38;102327.75;;;4.56;100.00
13968;BME280;39536;52.198;9.920;2023-02-28T10:34:05;102322.25;;;4.81;100.00
13968;BME280;39536;52.198;9.920;2023-02-28T10:36:33;102325.78;;;4.86;100.00
13968;BME280;39536;52.198;9.920;2023-02-28T10:39:00;102321.69;;;4.98;100.00
13968;BME280;39536;52.198;9.920;2023-02-28T10:41:28;102320.13;;;5.06;100.00
13968;BME280;39536;52.198;9.920;2023-02-28T10:44:13;102318.19;;;4.94;100.00
13968;BME280;39536;52.198;9.920;2023-02-28T10:46:41;102322.91;;;5.17;100.00
13968;BME280;39536;52.198;9.920;2023-02-28T10:49:14;102324.09;;;5.34;100.00
13968;BME280;39536;52.198;9.920;2023-02-28T10:51:42;102324.94;;;5.33;100.00
13968;BME280;39536;52.198;9.920;2023-02-28T10:54:16;102330.22;;;5.39;100.00
13968;BME280;39536;52.198;9.920;2023-02-28T10:56:43;102324.38;;;5.49;100.00
13968;BME280;39536;52.198;9.920;2023-02-28T10:59:26;102316.00;;;5.64;100.00
13968;BME280;39536;52.198;9.920;2023-02-28T11:01:53;102323.31;;;5.91;100.00
13968;BME280;39536;52.198;9.920;2023-02-28T11:04:32;102318.50;;;6.11;100.00
13968;BME280;39536;52.198;9.920;2023-02-28T11:07:04;102315.94;;;6.16;100.00
13968;BME280;39536;52.198;9.920;2023-02-28T11:09:33;102311.72;;;6.22;100.00
13968;BME280;39536;52.198;9.920;2023-02-28T11:12:02;102309.41;;;5.85;100.00
13968;BME280;39536;52.198;9.920;2023-02-28T11:14:32;102308.78;;;5.96;100.00
13968;BME280;39536;52.198;9.920;2023-02-28T11:17:13;102306.16;;;5.95;100.00
13968;BME280;39536;52.198;9.920;2023-02-28T11:19:46;102311.81;;;6.29;100.00
13968;BME280;39536;52.198;9.920;2023-02-28T11:22:19;102301.75;;;6.50;100.00
13968;BME280;39536;52.198;9.920;2023-02-28T11:24:50;102300.34;;;6.77;100.00
13968;BME280;39536;52.198;9.920;2023-02-28T11:27:43;102294.41;;;6.88;100.00
13968;BME280;39536;52.198;9.920;2023-02-28T11:30:26;102293.41;;;6.74;100.00
13968;BME280;39536;52.198;9.920;2023-02-28T11:32:53;102290.69;;;6.62;100.00
13968;BME280;39536;52.198;9.920;2023-02-28T11:35:23;102285.34;;;6.48;100.00
13968;BME280;39536;52.198;9.920;2023-02-28T11:37:52;102280.13;;;6.46;100.00
13968;BME280;39536;52.198;9.920;2023-02-28T11:40:24;102277.63;;;6.51;100.00
13968;BME280;39536;52.198;9.920;2023-02-28T11:43:00;102271.69;;;6.63;100.00
13968;BME280;39536;52.198;9.920;2023-02-28T11:45:45;102271.91;;;6.80;100.00
13968;BME280;39536;52.198;9.920;2023-02-28T11:48:20;102272.94;;;6.96;100.00
13968;BME280;39536;52.198;9.920;2023-02-28T11:51:02;102266.31;;;7.27;100.00
13968;BME280;39536;52.198;9.920;2023-02-28T11:53:51;102271.66;;;7.42;96.17
13968;BME280;39536;52.198;9.920;2023-02-28T11:56:26;102258.47;;;7.19;86.89
13968;BME280;39536;52.198;9.920;2023-02-28T11:59:10;102267.28;;;7.39;86.06
13968;BME280;39536;52.198;9.920;2023-02-28T12:01:51;102260.31;;;7.34;82.68
13968;BME280;39536;52.198;9.920;2023-02-28T12:04:25;102265.59;;;7.42;85.22
13968;BME280;39536;52.198;9.920;2023-02-28T12:06:59;102263.06;;;7.48;83.14
13968;BME280;39536;52.198;9.920;2023-02-28T12:09:47;102251.03;;;7.57;84.12
13968;BME280;39536;52.198;9.920;2023-02-28T12:12:26;102257.16;;;7.70;88.94
13968;BME280;39536;52.198;9.920;2023-02-28T12:15:13;102252.91;;;7.84;82.71
13968;BME280;39536;52.198;9.920;2023-02-28T12:17:52;102249.50;;;7.89;85.22
13968;BME280;39536;52.198;9.920;2023-02-28T12:20:28;102247.88;;;8.04;85.56
13968;BME280;39536;52.198;9.920;2023-02-28T12:23:10;102248.06;;;8.40;86.91
13968;BME280;39536;52.198;9.920;2023-02-28T12:25:52;102240.31;;;8.52;81.76
13968;BME280;39536;52.198;9.920;2023-02-28T12:28:25;102242.03;;;8.48;79.59
13968;BME280;39536;52.198;9.920;2023-02-28T12:30:56;102232.53;;;8.47;77.44
13968;BME280;39536;52.198;9.920;2023-02-28T12:33:27;102238.63;;;8.66;77.75
13968;BME280;39536;52.198;9.920;2023-02-28T12:35:59;102240.34;;;8.69;79.94
13968;BME280;39536;52.198;9.920;2023-02-28T12:38:30;102234.31;;;8.70;79.66
13968;BME280;39536;52.198;9.920;2023-02-28T12:41:00;102235.00;;;8.30;82.89
13968;BME280;39536;52.198;9.920;2023-02-28T12:43:33;102231.69;;;8.61;85.17
13968;BME280;39536;52.198;9.920;2023-02-28T12:46:08;102232.56;;;8.69;80.21
13968;BME280;39536;52.198;9.920;2023-02-28T12:48:40;102223.09;;;8.86;79.00
13968;BME280;39536;52.198;9.920;2023-02-28T12:51:09;102216.16;;;8.87;77.30
13968;BME280;39536;52.198;9.920;2023-02-28T12:53:50;102215.28;;;8.94;78.32
13968;BME280;39536;52.198;9.920;2023-02-28T12:56:30;102217.00;;;8.76;74.93
13968;BME280;39536;52.198;9.920;2023-02-28T12:59:04;102214.38;;;8.70;77.15
13968;BME280;39536;52.198;9.920;2023-02-28T13:01:50;102213.44;;;8.44;76.85
13968;BME280;39536;52.198;9.920;2023-02-28T13:04:34;102209.84;;;8.16;81.31
13968;BME280;39536;52.198;9.920;2023-02-28T13:07:28;102209.69;;;7.86;82.03
13968;BME280;39536;52.198;9.920;2023-02-28T13:10:00;102207.88;;;7.70;82.75